sensor_id;sensor_type;location;lat;lon;timestamp;pressure;altitude;pressure_sealevel;temperature;humidity
64544;BME280;50936;51.660;5.616;2022-12-18T00:01:30;102438.25;;;-6.03;100.00
64544;BME280;50936;51.660;5.616;2022-12-18T00:04:03;102427.72;;;-6.04;100.00
64544;BME280;50936;51.660;5.616;2022-12-18T00:06:32;102444.34;;;-6.05;100.00
64544;BME280;50936;51.660;5.616;2022-12-18T00:09:00;102454.78;;;-6.08;100.00
64544;BME280;50936;51.660;5.616;2022-12-18T00:11:30;102451.31;;;-6.07;100.00
64544;BME280;50936;51.660;5.616;2022-12-18T00:13:58;102456.50;;;-6.10;100.00
64544;BME280;50936;51.660;5.616;2022-12-18T00:16:27;102441.53;;;-6.13;100.00
64544;BME280;50936;51.660;5.616;2022-12-18T00:18:58;102437.06;;;-6.15;100.00
64544;BME280;50936;51.660;5.616;2022-12-18T00:21:28;102441.41;;;-6.17;100.00
64544;BME280;50936;51.660;5.616;2022-12-18T00:23:57;102437.91;;;-6.18;100.00
64544;BME280;50936;51.660;5.616;2022-12-18T00:26:30;102432.69;;;-6.16;100.00
64544;BME280;50936;51.660;5.616;2022-12-18T00:29:11;102430.06;;;-6.16;100.00
64544;BME280;50936;51.660;5.616;2022-12-18T00:31:42;102425.59;;;-6.19;100.00
64544;BME280;50936;51.660;5.616;2022-12-18T00:34:11;102430.78;;;-6.22;100.00
64544;BME280;50936;51.660;5.616;2022-12-18T00:36:39;102427.25;;;-6.24;100.00
64544;BME280;50936;51.660;5.616;2022-12-18T00:39:07;102419.22;;;-6.29;100.00
64544;BME280;50936;51.660;5.616;2022-12-18T00:41:36;102418.38;;;-6.28;100.00
64544;BME280;50936;51.660;5.616;2022-12-18T00:44:21;102420.13;;;-6.27;100.00
64544;BME280;50936;51.660;5.616;2022-12-18T00:46:50;102425.34;;;-6.28;100.00
64544;BME280;50936;51.660;5.616;2022-12-18T00:49:18;102427.97;;;-6.30;100.00
64544;BME280;50936;51.660;5.616;2022-12-18T00:51:47;102419.13;;;-6.32;100.00
64544;BME280;50936;51.660;5.616;2022-12-18T00:54:15;102426.09;;;-6.34;100.00
64544;BME280;50936;51.660;5.616;2022-12-18T00:56:43;102423.41;;;-6.37;100.00
64544;BME280;50936;51.660;5.616;2022-12-18T00:59:18;102419.84;;;-6.39;100.00
64544;BME280;50936;51.660;5.616;2022-12-18T01:01:45;102410.16;;;-6.40;100.00
64544;BME280;50936;51.660;5.616;2022-12-18T01:04:13;102418.00;;;-6.42;100.00
64544;BME280;50936;51.660;5.616;2022-12-18T01:06:44;102415.34;;;-6.43;100.00
64544;BME280;50936;51.660;5.616;2022-12-18T01:09:12;102418.84;;;-6.44;100.00
64544;BME280;50936;51.660;5.616;2022-12-18T01:11:39;102423.19;;;-6.45;100.00
64544;BME280;50936;51.660;5.616;2022-12-18T01:14:06;102431.91;;;-6.47;100.00
64544;BME280;50936;51.660;5.616;2022-12-18T01:16:33;102436.22;;;-6.49;100.00
64544;BME280;50936;51.660;5.616;2022-12-18T01:19:00;102444.06;;;-6.51;100.00
64544;BME280;50936;51.660;5.616;2022-12-18T01:21:27;102440.47;;;-6.54;100.00
64544;BME280;50936;51.660;5.616;2022-12-18T01:23:55;102443.97;;;-6.55;100.00
64544;BME280;50936;51.660;5.616;2022-12-18T01:26:24;102439.53;;;-6.56;100.00
64544;BME280;50936;51.660;5.616;2022-12-18T01:28:54;102436.06;;;-6.55;100.00
64544;BME280;50936;51.660;5.616;2022-12-18T01:31:26;102432.50;;;-6.58;100.00
64544;BME280;50936;51.660;5.616;2022-12-18T01:33:55;102430.72;;;-6.59;100.00
64544;BME280;50936;51.660;5.616;2022-12-18T01:36:24;102435.13;;;-6.58;100.00
64544;BME280;50936;51.660;5.616;2022-12-18T01:38:53;102429.22;;;-6.49;100.00
64544;BME280;50936;51.660;5.616;2022-12-18T01:41:24;102427.50;;;-6.48;100.00
64544;BME280;50936;51.660;5.616;2022-12-18T01:47:51;102418.59;;;-6.53;100.00
64544;BME280;50936;51.660;5.616;2022-12-18T01:50:39;102421.13;;;-6.56;100.00
64544;BME280;50936;51.660;5.616;2022-12-18T01:53:22;102417.59;;;-6.59;100.00
64544;BME280;50936;51.660;5.616;2022-12-18T01:55:55;102419.34;;;-6.58;100.00
64544;BME280;50936;51.660;5.616;2022-12-18T01:58:35;102413.16;;;-6.60;100.00
64544;BME280;50936;51.660;5.616;2022-12-18T02:01:08;102422.75;;;-6.62;100.00
64544;BME280;50936;51.660;5.616;2022-12-18T02:03:35;102423.63;;;-6.63;100.00
64544;BME280;50936;51.660;5.616;2022-12-18T02:06:12;102423.63;;;-6.63;100.00
64544;BME280;50936;51.660;5.616;2022-12-18T02:09:01;102421.81;;;-6.64;100.00
64544;BME280;50936;51.660;5.616;2022-12-18T02:17:56;102419.88;;;-6.71;100.00
64544;BME280;50936;51.660;5.616;2022-12-18T02:20:41;102421.59;;;-6.73;100.00
64544;BME280;50936;51.660;5.616;2022-12-18T02:23:47;102419.72;;;-6.77;100.00
64544;BME280;50936;51.660;5.616;2022-12-18T02:26:49;102419.53;;;-6.83;100.00
64544;BME280;50936;51.660;5.616;2022-12-18T02:29:31;102427.41;;;-6.83;100.00
64544;BME280;50936;51.660;5.616;2022-12-18T02:32:09;102422.94;;;-6.87;100.00
64544;BME280;50936;51.660;5.616;2022-12-18T02:34:41;102421.19;;;-6.88;100.00
64544;BME280;50936;51.660;5.616;2022-12-18T02:37:16;102418.44;;;-6.91;100.00
64544;BME280;50936;51.660;5.616;2022-12-18T02:39:48;102416.72;;;-6.91;100.00
64544;BME280;50936;51.660;5.616;2022-12-18T02:42:19;102415.81;;;-6.91;100.00
64544;BME280;50936;51.660;5.616;2022-12-18T02:44:50;102414.13;;;-6.89;100.00
64544;BME280;50936;51.660;5.616;2022-12-18T02:47:30;102411.44;;;-6.91;100.00
64544;BME280;50936;51.660;5.616;2022-12-18T02:50:41;102410.56;;;-6.91;100.00
64544;BME280;50936;51.660;5.616;2022-12-18T02:53:24;102401.84;;;-6.90;100.00
64544;BME280;50936;51.660;5.616;2022-12-18T02:56:08;102391.34;;;-6.90;100.00
64544;BME280;50936;51.660;5.616;2022-12-18T02:59:03;102392.03;;;-6.96;100.00
64544;BME280;50936;51.660;5.616;2022-12-18T03:04:44;102388.31;;;-7.04;100.00
64544;BME280;50936;51.660;5.616;2022-12-18T03:07:44;102395.31;;;-7.05;100.00
64544;BME280;50936;51.660;5.616;2022-12-18T03:10:23;102394.41;;;-7.07;100.00
64544;BME280;50936;51.660;5.616;2022-12-18T03:13:02;102399.59;;;-7.08;100.00
64544;BME280;50936;51.660;5.616;2022-12-18T03:15:40;102395.09;;;-7.12;100.00
64544;BME280;50936;51.660;5.616;2022-12-18T03:18:20;102388.91;;;-7.16;100.00
64544;BME280;50936;51.660;5.616;2022-12-18T03:20:57;102389.69;;;-7.19;100.00
64544;BME280;50936;51.660;5.616;2022-12-18T03:23:40;102387.88;;;-7.21;100.00
64544;BME280;50936;51.660;5.616;2022-12-18T03:26:16;102383.44;;;-7.22;100.00
64544;BME280;50936;51.660;5.616;2022-12-18T03:29:03;102380.78;;;-7.24;100.00
64544;BME280;50936;51.660;5.616;2022-12-18T03:31:37;102381.59;;;-7.26;100.00
64544;BME280;50936;51.660;5.616;2022-12-18T03:34:14;102385.03;;;-7.27;100.00
64544;BME280;50936;51.660;5.616;2022-12-18T03:36:46;102378.03;;;-7.28;100.00
64544;BME280;50936;51.660;5.616;2022-12-18T03:39:14;102381.50;;;-7.29;100.00
64544;BME280;50936;51.660;5.616;2022-12-18T03:41:49;102367.47;;;-7.30;100.00
64544;BME280;50936;51.660;5.616;2022-12-18T03:47:32;102369.22;;;-7.30;100.00
64544;BME280;50936;51.660;5.616;2022-12-18T03:50:17;102365.75;;;-7.29;100.00
64544;BME280;50936;51.660;5.616;2022-12-18T03:55:29;102356.16;;;-7.29;100.00
64544;BME280;50936;51.660;5.616;2022-12-18T03:58:04;102352.59;;;-7.29;100.00
64544;BME280;50936;51.660;5.616;2022-12-18T04:00:47;102357.03;;;-7.28;100.00
64544;BME280;50936;51.660;5.616;2022-12-18T04:03:19;102348.28;;;-7.27;100.00
64544;BME280;50936;51.660;5.616;2022-12-18T04:05:54;102347.47;;;-7.26;100.00
64544;BME280;50936;51.660;5.616;2022-12-18T04:08:23;102334.34;;;-7.26;100.00
64544;BME280;50936;51.660;5.616;2022-12-18T04:11:00;102347.50;;;-7.25;100.00
64544;BME280;50936;51.660;5.616;2022-12-18T04:13:33;102336.09;;;-7.25;100.00
64544;BME280;50936;51.660;5.616;2022-12-18T04:16:05;102335.22;;;-7.26;100.00
64544;BME280;50936;51.660;5.616;2022-12-18T04:18:33;102322.94;;;-7.27;100.00
64544;BME280;50936;51.660;5.616;2022-12-18T04:21:02;102318.56;;;-7.26;100.00
64544;BME280;50936;51.660;5.616;2022-12-18T04:23:29;102317.72;;;-7.25;100.00
64544;BME280;50936;51.660;5.616;2022-12-18T04:25:57;102316.00;;;-7.25;100.00
64544;BME280;50936;51.660;5.616;2022-12-18T04:28:45;102323.91;;;-7.23;100.00
64544;BME280;50936;51.660;5.616;2022-12-18T04:31:12;102325.69;;;-7.22;100.00
64544;BME280;50936;51.660;5.616;2022-12-18T04:33:39;102314.34;;;-7.21;100.00
64544;BME280;50936;51.660;5.616;2022-12-18T04:36:07;102313.44;;;-7.22;100.00
64544;BME280;50936;51.660;5.616;2022-12-18T04:38:34;102308.22;;;-7.20;100.00
64544;BME280;50936;51.660;5.616;2022-12-18T04:41:06;102316.16;;;-7.19;100.00
64544;BME280;50936;51.660;5.616;2022-12-18T04:43:35;102325.78;;;-7.19;100.00
64544;BME280;50936;51.660;5.616;2022-12-18T04:46:04;102332.78;;;-7.18;100.00
64544;BME280;50936;51.660;5.616;2022-12-18T04:48:33;102334.59;;;-7.17;100.00
64544;BME280;50936;51.660;5.616;2022-12-18T04:51:01;102341.63;;;-7.16;100.00
64544;BME280;50936;51.660;5.616;2022-12-18T04:53:29;102339.84;;;-7.17;100.00
64544;BME280;50936;51.660;5.616;2022-12-18T04:56:06;102338.09;;;-7.17;100.00
64544;BME280;50936;51.660;5.616;2022-12-18T04:58:36;102345.13;;;-7.16;100.00
64544;BME280;50936;51.660;5.616;2022-12-18T05:01:04;102346.88;;;-7.16;100.00
64544;BME280;50936;51.660;5.616;2022-12-18T05:03:31;102353.00;;;-7.16;100.00
64544;BME280;50936;51.660;5.616;2022-12-18T05:05:58;102353.00;;;-7.16;100.00
64544;BME280;50936;51.660;5.616;2022-12-18T05:08:25;102363.47;;;-7.17;100.00
64544;BME280;50936;51.660;5.616;2022-12-18T05:11:00;102368.66;;;-7.19;100.00
64544;BME280;50936;51.660;5.616;2022-12-18T05:13:28;102373.03;;;-7.19;100.00
64544;BME280;50936;51.660;5.616;2022-12-18T05:15:55;102385.25;;;-7.21;100.00
64544;BME280;50936;51.660;5.616;2022-12-18T05:18:23;102379.06;;;-7.22;100.00
64544;BME280;50936;51.660;5.616;2022-12-18T05:20:52;102381.75;;;-7.20;100.00
64544;BME280;50936;51.660;5.616;2022-12-18T05:23:21;102376.50;;;-7.20;100.00
64544;BME280;50936;51.660;5.616;2022-12-18T05:28:21;102378.19;;;-7.22;100.00
64544;BME280;50936;51.660;5.616;2022-12-18T05:30:52;102380.78;;;-7.24;100.00
64544;BME280;50936;51.660;5.616;2022-12-18T05:33:24;102368.47;;;-7.26;100.00
64544;BME280;50936;51.660;5.616;2022-12-18T05:35:55;102364.84;;;-7.30;100.00
64544;BME280;50936;51.660;5.616;2022-12-18T05:38:26;102358.63;;;-7.33;100.00
64544;BME280;50936;51.660;5.616;2022-12-18T05:40:56;102358.53;;;-7.37;100.00
64544;BME280;50936;51.660;5.616;2022-12-18T05:43:24;102356.78;;;-7.38;100.00
64544;BME280;50936;51.660;5.616;2022-12-18T05:45:53;102358.47;;;-7.40;100.00
64544;BME280;50936;51.660;5.616;2022-12-18T05:48:21;102354.97;;;-7.39;100.00
64544;BME280;50936;51.660;5.616;2022-12-18T05:50:49;102350.66;;;-7.37;100.00
64544;BME280;50936;51.660;5.616;2022-12-18T05:53:18;102349.81;;;-7.36;100.00
64544;BME280;50936;51.660;5.616;2022-12-18T05:55:46;102345.44;;;-7.35;100.00
64544;BME280;50936;51.660;5.616;2022-12-18T05:58:14;102345.44;;;-7.35;100.00
64544;BME280;50936;51.660;5.616;2022-12-18T06:00:43;102345.50;;;-7.33;100.00
64544;BME280;50936;51.660;5.616;2022-12-18T06:03:12;102339.41;;;-7.32;100.00
64544;BME280;50936;51.660;5.616;2022-12-18T06:05:43;102321.88;;;-7.33;100.00
64544;BME280;50936;51.660;5.616;2022-12-18T06:08:12;102328.91;;;-7.32;100.00
64544;BME280;50936;51.660;5.616;2022-12-18T06:10:40;102323.66;;;-7.32;100.00
64544;BME280;50936;51.660;5.616;2022-12-18T06:13:07;102316.63;;;-7.33;100.00
64544;BME280;50936;51.660;5.616;2022-12-18T06:15:38;102314.06;;;-7.32;100.00
64544;BME280;50936;51.660;5.616;2022-12-18T06:18:05;102311.47;;;-7.30;100.00
64544;BME280;50936;51.660;5.616;2022-12-18T06:20:32;102306.28;;;-7.27;100.00
64544;BME280;50936;51.660;5.616;2022-12-18T06:22:59;102310.75;;;-7.25;100.00
64544;BME280;50936;51.660;5.616;2022-12-18T06:25:26;102308.16;;;-7.23;100.00
64544;BME280;50936;51.660;5.616;2022-12-18T06:27:53;102311.72;;;-7.21;100.00
64544;BME280;50936;51.660;5.616;2022-12-18T06:30:20;102313.47;;;-7.20;100.00
64544;BME280;50936;51.660;5.616;2022-12-18T06:32:50;102320.53;;;-7.19;100.00
64544;BME280;50936;51.660;5.616;2022-12-18T06:35:22;102317.03;;;-7.18;100.00
64544;BME280;50936;51.660;5.616;2022-12-18T06:37:50;102320.63;;;-7.16;100.00
64544;BME280;50936;51.660;5.616;2022-12-18T06:40:17;102321.50;;;-7.16;100.00
64544;BME280;50936;51.660;5.616;2022-12-18T06:42:44;102317.13;;;-7.15;100.00
64544;BME280;50936;51.660;5.616;2022-12-18T06:45:11;102317.13;;;-7.15;100.00
64544;BME280;50936;51.660;5.616;2022-12-18T06:47:38;102313.66;;;-7.14;100.00
64544;BME280;50936;51.660;5.616;2022-12-18T06:50:05;102306.63;;;-7.15;100.00
64544;BME280;50936;51.660;5.616;2022-12-18T06:52:33;102308.41;;;-7.14;100.00
64544;BME280;50936;51.660;5.616;2022-12-18T06:55:00;102304.91;;;-7.13;100.00
64544;BME280;50936;51.660;5.616;2022-12-18T06:57:27;102302.34;;;-7.11;100.00
64544;BME280;50936;51.660;5.616;2022-12-18T06:59:53;102312.94;;;-7.08;100.00
64544;BME280;50936;51.660;5.616;2022-12-18T07:02:20;102301.63;;;-7.06;100.00
64544;BME280;50936;51.660;5.616;2022-12-18T07:04:47;102293.81;;;-7.03;100.00
64544;BME280;50936;51.660;5.616;2022-12-18T07:07:17;102289.50;;;-7.01;100.00
64544;BME280;50936;51.660;5.616;2022-12-18T07:09:44;102289.50;;;-7.01;100.00
64544;BME280;50936;51.660;5.616;2022-12-18T07:12:11;102291.25;;;-7.00;100.00
64544;BME280;50936;51.660;5.616;2022-12-18T07:14:37;102289.59;;;-6.98;100.00
64544;BME280;50936;51.660;5.616;2022-12-18T07:17:04;102287.88;;;-6.95;100.00
64544;BME280;50936;51.660;5.616;2022-12-18T07:19:32;102284.47;;;-6.91;100.00
64544;BME280;50936;51.660;5.616;2022-12-18T07:21:59;102274.94;;;-6.88;100.00
64544;BME280;50936;51.660;5.616;2022-12-18T07:24:27;102271.50;;;-6.85;100.00
64544;BME280;50936;51.660;5.616;2022-12-18T07:26:54;102272.41;;;-6.83;100.00
64544;BME280;50936;51.660;5.616;2022-12-18T07:29:21;102272.50;;;-6.80;100.00
64544;BME280;50936;51.660;5.616;2022-12-18T07:31:47;102276.03;;;-6.78;100.00
64544;BME280;50936;51.660;5.616;2022-12-18T07:34:14;102269.06;;;-6.78;100.00
64544;BME280;50936;51.660;5.616;2022-12-18T07:36:42;102267.38;;;-6.75;100.00
64544;BME280;50936;51.660;5.616;2022-12-18T07:39:11;102257.75;;;-6.75;100.00
64544;BME280;50936;51.660;5.616;2022-12-18T07:41:38;102264.78;;;-6.72;100.00
64544;BME280;50936;51.660;5.616;2022-12-18T07:44:14;102253.50;;;-6.70;100.00
64544;BME280;50936;51.660;5.616;2022-12-18T07:46:41;102255.25;;;-6.69;100.00
64544;BME280;50936;51.660;5.616;2022-12-18T07:49:08;102241.31;;;-6.66;100.00
64544;BME280;50936;51.660;5.616;2022-12-18T07:51:35;102239.66;;;-6.63;100.00
64544;BME280;50936;51.660;5.616;2022-12-18T07:54:01;102234.44;;;-6.60;100.00
64544;BME280;50936;51.660;5.616;2022-12-18T07:56:28;102236.31;;;-6.54;100.00
64544;BME280;50936;51.660;5.616;2022-12-18T07:58:58;102232.97;;;-6.48;100.00
64544;BME280;50936;51.660;5.616;2022-12-18T08:01:25;102223.47;;;-6.42;100.00
64544;BME280;50936;51.660;5.616;2022-12-18T08:03:53;102217.41;;;-6.39;100.00
64544;BME280;50936;51.660;5.616;2022-12-18T08:06:20;102216.63;;;-6.35;100.00
64544;BME280;50936;51.660;5.616;2022-12-18T08:08:52;102218.50;;;-6.29;100.00
64544;BME280;50936;51.660;5.616;2022-12-18T08:11:20;102217.72;;;-6.24;100.00
64544;BME280;50936;51.660;5.616;2022-12-18T08:13:47;102217.81;;;-6.19;100.00
64544;BME280;50936;51.660;5.616;2022-12-18T08:16:14;102222.34;;;-6.13;100.00
64544;BME280;50936;51.660;5.616;2022-12-18T08:18:42;102223.31;;;-6.08;100.00
64544;BME280;50936;51.660;5.616;2022-12-18T08:21:13;102228.72;;;-6.02;100.00
64544;BME280;50936;51.660;5.616;2022-12-18T08:23:42;102222.69;;;-5.96;100.00
64544;BME280;50936;51.660;5.616;2022-12-18T08:26:10;102228.88;;;-5.93;100.00
64544;BME280;50936;51.660;5.616;2022-12-18T08:28:38;102232.50;;;-5.88;100.00
64544;BME280;50936;51.660;5.616;2022-12-18T08:31:05;102237.88;;;-5.82;100.00
64544;BME280;50936;51.660;5.616;2022-12-18T08:33:34;102235.38;;;-5.74;100.00
64544;BME280;50936;51.660;5.616;2022-12-18T08:36:03;102237.28;;;-5.67;100.00
64544;BME280;50936;51.660;5.616;2022-12-18T08:38:31;102227.75;;;-5.62;100.00
64544;BME280;50936;51.660;5.616;2022-12-18T08:41:07;102235.75;;;-5.55;100.00
64544;BME280;50936;51.660;5.616;2022-12-18T08:43:35;102249.00;;;-5.51;100.00
64544;BME280;50936;51.660;5.616;2022-12-18T08:46:21;102236.00;;;-5.43;100.00
64544;BME280;50936;51.660;5.616;2022-12-18T08:48:51;102235.16;;;-5.41;100.00
64544;BME280;50936;51.660;5.616;2022-12-18T08:51:19;102215.94;;;-5.36;100.00
64544;BME280;50936;51.660;5.616;2022-12-18T08:53:46;102208.09;;;-5.32;100.00
64544;BME280;50936;51.660;5.616;2022-12-18T08:56:14;102205.50;;;-5.30;100.00
64544;BME280;50936;51.660;5.616;2022-12-18T08:58:41;102213.47;;;-5.27;100.00
64544;BME280;50936;51.660;5.616;2022-12-18T09:01:10;102225.84;;;-5.22;100.00
64544;BME280;50936;51.660;5.616;2022-12-18T09:03:39;102216.28;;;-5.16;100.00
64544;BME280;50936;51.660;5.616;2022-12-18T09:06:07;102214.63;;;-5.10;100.00
64544;BME280;50936;51.660;5.616;2022-12-18T09:08:34;102211.22;;;-5.03;100.00
64544;BME280;50936;51.660;5.616;2022-12-18T09:11:01;102215.72;;;-4.97;100.00
64544;BME280;50936;51.660;5.616;2022-12-18T09:13:29;102222.00;;;-4.90;100.00
64544;BME280;50936;51.660;5.616;2022-12-18T09:15:55;102222.97;;;-4.82;100.00
64544;BME280;50936;51.660;5.616;2022-12-18T09:18:24;102218.69;;;-4.77;100.00
64544;BME280;50936;51.660;5.616;2022-12-18T09:20:51;102211.78;;;-4.69;100.00
64544;BME280;50936;51.660;5.616;2022-12-18T09:23:20;102217.16;;;-4.62;100.00
64544;BME280;50936;51.660;5.616;2022-12-18T09:25:47;102228.66;;;-4.57;100.00
64544;BME280;50936;51.660;5.616;2022-12-18T09:28:16;102240.19;;;-4.49;100.00
64544;BME280;50936;51.660;5.616;2022-12-18T09:30:47;102235.03;;;-4.43;100.00
64544;BME280;50936;51.660;5.616;2022-12-18T09:33:16;102236.91;;;-4.36;100.00
64544;BME280;50936;51.660;5.616;2022-12-18T09:35:44;102230.78;;;-4.32;100.00
64544;BME280;50936;51.660;5.616;2022-12-18T09:38:14;102233.50;;;-4.26;100.00
64544;BME280;50936;51.660;5.616;2022-12-18T09:40:45;102228.34;;;-4.19;100.00
64544;BME280;50936;51.660;5.616;2022-12-18T09:43:18;102215.22;;;-4.12;100.00
64544;BME280;50936;51.660;5.616;2022-12-18T09:46:11;102207.41;;;-4.04;100.00
64544;BME280;50936;51.660;5.616;2022-12-18T09:48:49;102203.94;;;-4.00;100.00
64544;BME280;50936;51.660;5.616;2022-12-18T09:51:25;102205.72;;;-3.96;100.00
64544;BME280;50936;51.660;5.616;2022-12-18T09:54:26;102191.72;;;-3.92;100.00
64544;BME280;50936;51.660;5.616;2022-12-18T09:57:18;102185.66;;;-3.84;100.00
64544;BME280;50936;51.660;5.616;2022-12-18T09:59:58;102176.06;;;-3.76;100.00
64544;BME280;50936;51.660;5.616;2022-12-18T10:02:36;102173.50;;;-3.67;100.00
64544;BME280;50936;51.660;5.616;2022-12-18T10:10:49;102177.28;;;-3.42;100.00
64544;BME280;50936;51.660;5.616;2022-12-18T10:13:41;102176.50;;;-3.33;100.00
64544;BME280;50936;51.660;5.616;2022-12-18T10:19:43;102180.13;;;-3.22;100.00
64544;BME280;50936;51.660;5.616;2022-12-18T10:25:23;102175.00;;;-3.03;100.00
64544;BME280;50936;51.660;5.616;2022-12-18T10:27:57;102176.81;;;-2.96;100.00
64544;BME280;50936;51.660;5.616;2022-12-18T10:30:33;102174.16;;;-2.98;100.00
64544;BME280;50936;51.660;5.616;2022-12-18T10:33:01;102179.47;;;-2.96;100.00
64544;BME280;50936;51.660;5.616;2022-12-18T10:35:29;102175.06;;;-2.94;100.00
64544;BME280;50936;51.660;5.616;2022-12-18T10:41:24;102161.03;;;-2.87;100.00
64544;BME280;50936;51.660;5.616;2022-12-18T10:46:49;102148.72;;;-2.79;100.00
64544;BME280;50936;51.660;5.616;2022-12-18T10:49:26;102145.25;;;-2.75;100.00
64544;BME280;50936;51.660;5.616;2022-12-18T10:52:14;102129.41;;;-2.67;100.00
64544;BME280;50936;51.660;5.616;2022-12-18T10:54:48;102110.06;;;-2.61;100.00
64544;BME280;50936;51.660;5.616;2022-12-18T10:59:53;102117.13;;;-2.51;100.00
64544;BME280;50936;51.660;5.616;2022-12-18T11:02:37;102105.72;;;-2.45;100.00
64544;BME280;50936;51.660;5.616;2022-12-18T11:05:32;102113.66;;;-2.41;100.00
64544;BME280;50936;51.660;5.616;2022-12-18T11:08:00;102104.88;;;-2.40;100.00
64544;BME280;50936;51.660;5.616;2022-12-18T11:10:37;102108.38;;;-2.41;100.00
64544;BME280;50936;51.660;5.616;2022-12-18T11:13:20;102113.69;;;-2.38;100.00
64544;BME280;50936;51.660;5.616;2022-12-18T11:15:50;102097.84;;;-2.36;100.00
64544;BME280;50936;51.660;5.616;2022-12-18T11:18:22;102100.47;;;-2.32;100.00
64544;BME280;50936;51.660;5.616;2022-12-18T11:21:05;102105.78;;;-2.25;100.00
64544;BME280;50936;51.660;5.616;2022-12-18T11:23:35;102104.06;;;-2.19;100.00
64544;BME280;50936;51.660;5.616;2022-12-18T11:26:04;102106.72;;;-2.11;100.00
64544;BME280;50936;51.660;5.616;2022-12-18T11:28:52;102091.75;;;-2.06;100.00
64544;BME280;50936;51.660;5.616;2022-12-18T11:31:34;102089.09;;;-2.00;100.00
64544;BME280;50936;51.660;5.616;2022-12-18T11:34:16;102087.34;;;-1.99;100.00
64544;BME280;50936;51.660;5.616;2022-12-18T11:36:57;102087.38;;;-1.98;100.00
64544;BME280;50936;51.660;5.616;2022-12-18T11:39:48;102085.59;;;-1.92;100.00
64544;BME280;50936;51.660;5.616;2022-12-18T11:42:32;102081.19;;;-1.86;100.00
64544;BME280;50936;51.660;5.616;2022-12-18T11:50:16;102089.16;;;-1.78;100.00
64544;BME280;50936;51.660;5.616;2022-12-18T11:52:50;102079.47;;;-1.78;100.00
64544;BME280;50936;51.660;5.616;2022-12-18T11:55:46;102069.75;;;-1.76;100.00
64544;BME280;50936;51.660;5.616;2022-12-18T11:58:42;102066.22;;;-1.73;100.00
64544;BME280;50936;51.660;5.616;2022-12-18T12:01:45;102068.88;;;-1.70;100.00
64544;BME280;50936;51.660;5.616;2022-12-18T12:04:28;102060.03;;;-1.67;100.00
64544;BME280;50936;51.660;5.616;2022-12-18T12:21:07;102018.50;;;-1.58;100.00
64544;BME280;50936;51.660;5.616;2022-12-18T12:32:31;102022.06;;;-1.46;100.00
64544;BME280;50936;51.660;5.616;2022-12-18T12:40:33;102005.25;;;-1.38;100.00
64544;BME280;50936;51.660;5.616;2022-12-18T12:43:37;102006.13;;;-1.32;100.00
64544;BME280;50936;51.660;5.616;2022-12-18T12:46:17;102006.13;;;-1.28;100.00
64544;BME280;50936;51.660;5.616;2022-12-18T12:51:39;101987.56;;;-1.25;100.00
64544;BME280;50936;51.660;5.616;2022-12-18T12:54:23;101977.84;;;-1.23;100.00
64544;BME280;50936;51.660;5.616;2022-12-18T13:00:06;101972.56;;;-1.23;100.00
64544;BME280;50936;51.660;5.616;2022-12-18T13:08:04;101954.88;;;-1.21;100.00
64544;BME280;50936;51.660;5.616;2022-12-18T13:10:43;101951.31;;;-1.17;100.00
64544;BME280;50936;51.660;5.616;2022-12-18T13:13:12;101948.66;;;-1.15;100.00
64544;BME280;50936;51.660;5.616;2022-12-18T13:16:07;101946.03;;;-1.17;100.00
64544;BME280;50936;51.660;5.616;2022-12-18T13:18:35;101946.03;;;-1.17;100.00
64544;BME280;50936;51.660;5.616;2022-12-18T13:21:12;101946.00;;;-1.10;100.00
64544;BME280;50936;51.660;5.616;2022-12-18T13:23:49;101953.06;;;-1.09;100.00
64544;BME280;50936;51.660;5.616;2022-12-18T13:28:54;101942.44;;;-1.06;99.75
64544;BME280;50936;51.660;5.616;2022-12-18T13:34:21;101938.91;;;-1.05;99.32
64544;BME280;50936;51.660;5.616;2022-12-18T13:36:55;101938.03;;;-1.06;98.88
64544;BME280;50936;51.660;5.616;2022-12-18T13:39:43;101942.44;;;-1.06;98.86
64544;BME280;50936;51.660;5.616;2022-12-18T13:45:42;101944.19;;;-1.05;98.99
64544;BME280;50936;51.660;5.616;2022-12-18T13:48:22;101936.25;;;-1.07;99.30
64544;BME280;50936;51.660;5.616;2022-12-18T13:51:01;101932.72;;;-1.06;98.85
64544;BME280;50936;51.660;5.616;2022-12-18T13:53:44;101929.16;;;-1.06;99.08
64544;BME280;50936;51.660;5.616;2022-12-18T13:56:26;101923.88;;;-1.05;98.61
64544;BME280;50936;51.660;5.616;2022-12-18T13:59:20;101917.69;;;-1.05;99.12
64544;BME280;50936;51.660;5.616;2022-12-18T14:01:56;101913.25;;;-1.05;98.64
64544;BME280;50936;51.660;5.616;2022-12-18T14:04:32;101914.16;;;-1.07;98.41
64544;BME280;50936;51.660;5.616;2022-12-18T14:07:07;101910.59;;;-1.06;98.97
64544;BME280;50936;51.660;5.616;2022-12-18T14:09:46;101912.38;;;-1.05;98.84
64544;BME280;50936;51.660;5.616;2022-12-18T14:17:58;101907.09;;;-1.05;99.02
64544;BME280;50936;51.660;5.616;2022-12-18T14:20:31;101907.97;;;-1.06;99.68
64544;BME280;50936;51.660;5.616;2022-12-18T14:22:59;101908.81;;;-1.01;99.22
64544;BME280;50936;51.660;5.616;2022-12-18T14:25:28;101898.22;;;-0.98;98.83
64544;BME280;50936;51.660;5.616;2022-12-18T14:30:44;101900.88;;;-1.00;98.19
64544;BME280;50936;51.660;5.616;2022-12-18T14:33:19;101914.13;;;-1.01;99.03
64544;BME280;50936;51.660;5.616;2022-12-18T14:36:13;101914.13;;;-0.98;99.04
64544;BME280;50936;51.660;5.616;2022-12-18T14:38:48;101910.59;;;-0.97;98.64
64544;BME280;50936;51.660;5.616;2022-12-18T14:41:21;101913.25;;;-0.99;99.30
64544;BME280;50936;51.660;5.616;2022-12-18T14:43:50;101907.03;;;-0.93;99.31
64544;BME280;50936;51.660;5.616;2022-12-18T14:46:34;101900.81;;;-0.93;98.44
64544;BME280;50936;51.660;5.616;2022-12-18T14:49:24;101894.69;;;-0.97;98.80
64544;BME280;50936;51.660;5.616;2022-12-18T14:51:57;101886.72;;;-0.97;98.63
64544;BME280;50936;51.660;5.616;2022-12-18T14:54:27;101885.81;;;-0.99;98.81
64544;BME280;50936;51.660;5.616;2022-12-18T14:57:05;101882.31;;;-0.98;98.60